Terminal Aerodrome Forecast
Issued by NWS

Home | Current Version | Previous Version | Graphics & Text | Print | Product List | Glossary On
Versions: 1 2 3 4 5 6 7 8 9 10 11 12 13 14 15 16 17 18 19 20 21 22 23 24 25
000
FTUS43 KICT 221133
TAFRSL
TAF
KRSL 221133Z 2212/2312 33023G33KT 2SM -SN SCT005 OVC008
      TEMPO 2212/2216 3/4SM -SN OVC005
     FM221600 33030G42KT 2SM -SN BLSN SCT008 OVC015
      TEMPO 2216/2218 3/4SM -SN BLSN OVC008
     FM221800 32030G42KT 5SM BLSN BKN030
     FM222300 31018G26KT P6SM SKC
     FM230400 30013KT P6SM SKC=

USA.gov is the U.S. government's official web portal to all federal, state and local government web resources and services.